sensor_id;sensor_type;location;lat;lon;timestamp;P1;durP1;ratioP1;P2;durP2;ratioP2
6941;SDS011;3510;43.200;27.920;2022-12-24T00:00:13;70.15;;;50.17;;
6941;SDS011;3510;43.200;27.920;2022-12-24T00:02:41;79.03;;;53.30;;
6941;SDS011;3510;43.200;27.920;2022-12-24T00:05:08;75.60;;;52.35;;
6941;SDS011;3510;43.200;27.920;2022-12-24T00:07:36;76.57;;;52.85;;
6941;SDS011;3510;43.200;27.920;2022-12-24T00:10:03;73.00;;;53.90;;
6941;SDS011;3510;43.200;27.920;2022-12-24T00:12:30;75.45;;;53.33;;
6941;SDS011;3510;43.200;27.920;2022-12-24T00:14:57;73.03;;;51.25;;
6941;SDS011;3510;43.200;27.920;2022-12-24T00:17:26;72.45;;;52.95;;
6941;SDS011;3510;43.200;27.920;2022-12-24T00:19:53;76.63;;;54.25;;
6941;SDS011;3510;43.200;27.920;2022-12-24T00:22:20;78.38;;;56.25;;
6941;SDS011;3510;43.200;27.920;2022-12-24T00:24:47;85.88;;;58.67;;
6941;SDS011;3510;43.200;27.920;2022-12-24T00:27:13;82.10;;;57.65;;
6941;SDS011;3510;43.200;27.920;2022-12-24T00:29:41;82.43;;;57.28;;
6941;SDS011;3510;43.200;27.920;2022-12-24T00:32:07;76.17;;;55.43;;
6941;SDS011;3510;43.200;27.920;2022-12-24T00:37:35;73.55;;;52.28;;
6941;SDS011;3510;43.200;27.920;2022-12-24T00:40:02;82.10;;;55.90;;
6941;SDS011;3510;43.200;27.920;2022-12-24T00:42:30;81.60;;;54.25;;
6941;SDS011;3510;43.200;27.920;2022-12-24T00:44:57;77.90;;;54.75;;
6941;SDS011;3510;43.200;27.920;2022-12-24T00:47:24;82.32;;;55.00;;
6941;SDS011;3510;43.200;27.920;2022-12-24T00:49:51;85.20;;;55.15;;
6941;SDS011;3510;43.200;27.920;2022-12-24T00:52:18;82.32;;;55.97;;
6941;SDS011;3510;43.200;27.920;2022-12-24T00:54:46;83.97;;;56.17;;
6941;SDS011;3510;43.200;27.920;2022-12-24T00:57:13;80.07;;;55.50;;
6941;SDS011;3510;43.200;27.920;2022-12-24T00:59:40;83.07;;;54.75;;
6941;SDS011;3510;43.200;27.920;2022-12-24T01:02:07;86.25;;;59.67;;
6941;SDS011;3510;43.200;27.920;2022-12-24T01:04:34;89.68;;;59.38;;
6941;SDS011;3510;43.200;27.920;2022-12-24T01:07:18;89.43;;;57.80;;
6941;SDS011;3510;43.200;27.920;2022-12-24T01:09:47;86.05;;;59.25;;
6941;SDS011;3510;43.200;27.920;2022-12-24T01:12:14;84.22;;;58.80;;
6941;SDS011;3510;43.200;27.920;2022-12-24T01:14:41;88.60;;;60.35;;
6941;SDS011;3510;43.200;27.920;2022-12-24T01:17:08;83.25;;;57.67;;
6941;SDS011;3510;43.200;27.920;2022-12-24T01:19:35;93.53;;;63.50;;
6941;SDS011;3510;43.200;27.920;2022-12-24T01:22:02;98.30;;;69.80;;
6941;SDS011;3510;43.200;27.920;2022-12-24T01:24:29;99.78;;;67.60;;
6941;SDS011;3510;43.200;27.920;2022-12-24T01:26:57;92.82;;;64.65;;
6941;SDS011;3510;43.200;27.920;2022-12-24T01:29:24;92.60;;;64.68;;
6941;SDS011;3510;43.200;27.920;2022-12-24T01:31:51;89.97;;;63.10;;
6941;SDS011;3510;43.200;27.920;2022-12-24T01:34:24;91.70;;;64.57;;
6941;SDS011;3510;43.200;27.920;2022-12-24T01:36:51;100.43;;;70.47;;
6941;SDS011;3510;43.200;27.920;2022-12-24T01:39:18;103.95;;;72.85;;
6941;SDS011;3510;43.200;27.920;2022-12-24T01:41:45;100.88;;;72.75;;
6941;SDS011;3510;43.200;27.920;2022-12-24T01:44:31;105.15;;;70.40;;
6941;SDS011;3510;43.200;27.920;2022-12-24T01:47:01;94.93;;;67.88;;
6941;SDS011;3510;43.200;27.920;2022-12-24T01:49:34;93.28;;;65.35;;
6941;SDS011;3510;43.200;27.920;2022-12-24T01:52:05;102.82;;;69.78;;
6941;SDS011;3510;43.200;27.920;2022-12-24T01:54:35;91.20;;;62.30;;
6941;SDS011;3510;43.200;27.920;2022-12-24T01:57:07;92.00;;;59.80;;
6941;SDS011;3510;43.200;27.920;2022-12-24T08:40:14;47.37;;;30.60;;
6941;SDS011;3510;43.200;27.920;2022-12-24T08:42:42;54.43;;;29.50;;
6941;SDS011;3510;43.200;27.920;2022-12-24T08:45:09;53.60;;;30.77;;
6941;SDS011;3510;43.200;27.920;2022-12-24T08:47:41;50.73;;;29.53;;
6941;SDS011;3510;43.200;27.920;2022-12-24T08:50:08;47.73;;;26.67;;
6941;SDS011;3510;43.200;27.920;2022-12-24T08:52:36;54.67;;;28.10;;
6941;SDS011;3510;43.200;27.920;2022-12-24T08:55:03;43.00;;;28.00;;
6941;SDS011;3510;43.200;27.920;2022-12-24T08:57:31;45.53;;;27.60;;
6941;SDS011;3510;43.200;27.920;2022-12-24T09:00:01;43.67;;;27.83;;
6941;SDS011;3510;43.200;27.920;2022-12-24T09:02:37;50.90;;;30.23;;
6941;SDS011;3510;43.200;27.920;2022-12-24T09:05:07;46.73;;;27.57;;
6941;SDS011;3510;43.200;27.920;2022-12-24T09:07:35;49.53;;;28.67;;
6941;SDS011;3510;43.200;27.920;2022-12-24T09:10:03;45.90;;;27.73;;
6941;SDS011;3510;43.200;27.920;2022-12-24T09:12:30;47.20;;;26.63;;
6941;SDS011;3510;43.200;27.920;2022-12-24T09:14:57;42.37;;;26.60;;
6941;SDS011;3510;43.200;27.920;2022-12-24T09:17:25;40.83;;;28.53;;
6941;SDS011;3510;43.200;27.920;2022-12-24T09:19:52;49.13;;;26.83;;
6941;SDS011;3510;43.200;27.920;2022-12-24T09:22:20;37.93;;;28.27;;
6941;SDS011;3510;43.200;27.920;2022-12-24T09:24:47;34.58;;;28.27;;
6941;SDS011;3510;43.200;27.920;2022-12-24T09:27:14;36.28;;;28.30;;
6941;SDS011;3510;43.200;27.920;2022-12-24T09:29:41;34.77;;;22.60;;
6941;SDS011;3510;43.200;27.920;2022-12-24T09:32:08;23.43;;;18.70;;
6941;SDS011;3510;43.200;27.920;2022-12-24T09:34:35;34.10;;;22.27;;
6941;SDS011;3510;43.200;27.920;2022-12-24T09:37:04;24.93;;;18.23;;
6941;SDS011;3510;43.200;27.920;2022-12-24T09:39:33;25.60;;;18.20;;
6941;SDS011;3510;43.200;27.920;2022-12-24T09:42:02;27.60;;;19.10;;
6941;SDS011;3510;43.200;27.920;2022-12-24T09:44:40;32.67;;;20.37;;
6941;SDS011;3510;43.200;27.920;2022-12-24T09:47:14;32.70;;;20.70;;
6941;SDS011;3510;43.200;27.920;2022-12-24T09:49:48;30.17;;;19.23;;
6941;SDS011;3510;43.200;27.920;2022-12-24T09:52:22;29.60;;;19.53;;
6941;SDS011;3510;43.200;27.920;2022-12-24T09:54:57;25.67;;;17.57;;
6941;SDS011;3510;43.200;27.920;2022-12-24T09:57:33;32.13;;;21.03;;
6941;SDS011;3510;43.200;27.920;2022-12-24T10:00:03;30.17;;;20.33;;
6941;SDS011;3510;43.200;27.920;2022-12-24T10:02:33;29.03;;;20.60;;
6941;SDS011;3510;43.200;27.920;2022-12-24T10:05:00;31.13;;;21.47;;
6941;SDS011;3510;43.200;27.920;2022-12-24T10:07:29;32.07;;;19.40;;
6941;SDS011;3510;43.200;27.920;2022-12-24T10:10:11;27.97;;;19.40;;
6941;SDS011;3510;43.200;27.920;2022-12-24T10:12:46;25.90;;;18.37;;
6941;SDS011;3510;43.200;27.920;2022-12-24T10:15:23;29.03;;;20.33;;
6941;SDS011;3510;43.200;27.920;2022-12-24T10:18:01;25.20;;;20.20;;
6941;SDS011;3510;43.200;27.920;2022-12-24T10:20:41;26.07;;;19.40;;
6941;SDS011;3510;43.200;27.920;2022-12-24T10:23:18;25.83;;;17.70;;
6941;SDS011;3510;43.200;27.920;2022-12-24T10:25:54;19.13;;;14.87;;
6941;SDS011;3510;43.200;27.920;2022-12-24T10:28:31;15.13;;;11.60;;
6941;SDS011;3510;43.200;27.920;2022-12-24T10:31:04;14.67;;;11.43;;
6941;SDS011;3510;43.200;27.920;2022-12-24T10:33:35;12.37;;;10.77;;
6941;SDS011;3510;43.200;27.920;2022-12-24T10:36:07;15.10;;;10.97;;
6941;SDS011;3510;43.200;27.920;2022-12-24T10:38:40;13.83;;;10.70;;
6941;SDS011;3510;43.200;27.920;2022-12-24T10:41:10;11.83;;;10.60;;
6941;SDS011;3510;43.200;27.920;2022-12-24T10:43:38;10.47;;;9.37;;
6941;SDS011;3510;43.200;27.920;2022-12-24T10:46:12;12.53;;;8.73;;
6941;SDS011;3510;43.200;27.920;2022-12-24T10:48:44;9.37;;;8.43;;
6941;SDS011;3510;43.200;27.920;2022-12-24T10:51:19;10.37;;;8.07;;
6941;SDS011;3510;43.200;27.920;2022-12-24T10:53:48;9.77;;;8.07;;
6941;SDS011;3510;43.200;27.920;2022-12-24T10:56:21;11.23;;;10.10;;
6941;SDS011;3510;43.200;27.920;2022-12-24T10:58:50;10.47;;;9.40;;
6941;SDS011;3510;43.200;27.920;2022-12-24T11:01:19;11.30;;;8.70;;
6941;SDS011;3510;43.200;27.920;2022-12-24T11:03:58;9.47;;;8.50;;
6941;SDS011;3510;43.200;27.920;2022-12-24T11:06:28;9.80;;;8.07;;
6941;SDS011;3510;43.200;27.920;2022-12-24T11:08:55;10.57;;;9.37;;
6941;SDS011;3510;43.200;27.920;2022-12-24T11:11:49;12.40;;;10.20;;
6941;SDS011;3510;43.200;27.920;2022-12-24T11:14:17;12.13;;;11.10;;
6941;SDS011;3510;43.200;27.920;2022-12-24T11:16:48;12.43;;;11.13;;
6941;SDS011;3510;43.200;27.920;2022-12-24T11:19:17;15.38;;;12.55;;
6941;SDS011;3510;43.200;27.920;2022-12-24T11:21:54;11.65;;;10.60;;
6941;SDS011;3510;43.200;27.920;2022-12-24T11:24:25;9.40;;;8.50;;
6941;SDS011;3510;43.200;27.920;2022-12-24T11:26:57;13.30;;;9.47;;
6941;SDS011;3510;43.200;27.920;2022-12-24T11:35:45;10.77;;;9.77;;
6941;SDS011;3510;43.200;27.920;2022-12-24T11:38:17;11.03;;;9.83;;
6941;SDS011;3510;43.200;27.920;2022-12-24T11:40:47;11.37;;;8.97;;
6941;SDS011;3510;43.200;27.920;2022-12-24T11:43:18;12.40;;;8.97;;
6941;SDS011;3510;43.200;27.920;2022-12-24T11:45:47;10.73;;;9.60;;
6941;SDS011;3510;43.200;27.920;2022-12-24T11:48:26;10.90;;;9.13;;
6941;SDS011;3510;43.200;27.920;2022-12-24T11:50:55;12.20;;;9.17;;
6941;SDS011;3510;43.200;27.920;2022-12-24T11:53:24;10.83;;;9.70;;
6941;SDS011;3510;43.200;27.920;2022-12-24T11:56:04;10.10;;;9.10;;
6941;SDS011;3510;43.200;27.920;2022-12-24T11:58:44;11.63;;;10.52;;
6941;SDS011;3510;43.200;27.920;2022-12-24T12:01:17;12.57;;;11.40;;
6941;SDS011;3510;43.200;27.920;2022-12-24T12:03:52;12.13;;;10.93;;
6941;SDS011;3510;43.200;27.920;2022-12-24T12:06:26;13.23;;;11.73;;
6941;SDS011;3510;43.200;27.920;2022-12-24T12:08:57;14.77;;;11.57;;
6941;SDS011;3510;43.200;27.920;2022-12-24T12:11:27;14.77;;;11.63;;
6941;SDS011;3510;43.200;27.920;2022-12-24T12:13:59;13.48;;;12.07;;
6941;SDS011;3510;43.200;27.920;2022-12-24T12:16:31;14.23;;;11.80;;
6941;SDS011;3510;43.200;27.920;2022-12-24T12:19:19;19.08;;;11.95;;
6941;SDS011;3510;43.200;27.920;2022-12-24T12:21:50;9.88;;;9.07;;
6941;SDS011;3510;43.200;27.920;2022-12-24T12:24:19;11.20;;;10.00;;
6941;SDS011;3510;43.200;27.920;2022-12-24T12:26:54;14.73;;;11.95;;
6941;SDS011;3510;43.200;27.920;2022-12-24T12:29:29;16.50;;;11.77;;
6941;SDS011;3510;43.200;27.920;2022-12-24T12:32:01;12.73;;;8.93;;
6941;SDS011;3510;43.200;27.920;2022-12-24T12:34:33;12.17;;;8.00;;
6941;SDS011;3510;43.200;27.920;2022-12-24T12:37:09;11.95;;;10.57;;
6941;SDS011;3510;43.200;27.920;2022-12-24T12:39:40;11.50;;;10.13;;
6941;SDS011;3510;43.200;27.920;2022-12-24T12:42:10;8.87;;;7.73;;
6941;SDS011;3510;43.200;27.920;2022-12-24T12:47:48;7.57;;;6.73;;
6941;SDS011;3510;43.200;27.920;2022-12-24T12:50:33;6.60;;;6.00;;
6941;SDS011;3510;43.200;27.920;2022-12-24T12:53:12;6.07;;;5.47;;
6941;SDS011;3510;43.200;27.920;2022-12-24T12:55:57;7.47;;;6.17;;
6941;SDS011;3510;43.200;27.920;2022-12-24T12:58:34;6.43;;;5.90;;
6941;SDS011;3510;43.200;27.920;2022-12-24T13:01:06;8.93;;;7.47;;
6941;SDS011;3510;43.200;27.920;2022-12-24T13:03:46;6.50;;;6.00;;
6941;SDS011;3510;43.200;27.920;2022-12-24T13:06:38;5.83;;;5.20;;
6941;SDS011;3510;43.200;27.920;2022-12-24T13:09:35;5.07;;;4.77;;
6941;SDS011;3510;43.200;27.920;2022-12-24T13:12:27;4.97;;;4.47;;
6941;SDS011;3510;43.200;27.920;2022-12-24T13:15:32;6.47;;;5.97;;
6941;SDS011;3510;43.200;27.920;2022-12-24T13:18:32;11.67;;;9.70;;
6941;SDS011;3510;43.200;27.920;2022-12-24T13:21:24;6.00;;;5.50;;
6941;SDS011;3510;43.200;27.920;2022-12-24T13:24:03;6.73;;;5.77;;
6941;SDS011;3510;43.200;27.920;2022-12-24T13:26:31;5.60;;;5.17;;
6941;SDS011;3510;43.200;27.920;2022-12-24T13:35:32;8.70;;;6.83;;
6941;SDS011;3510;43.200;27.920;2022-12-24T13:46:51;10.43;;;8.50;;
6941;SDS011;3510;43.200;27.920;2022-12-24T13:49:26;8.27;;;6.70;;
6941;SDS011;3510;43.200;27.920;2022-12-24T13:52:07;7.80;;;7.00;;
6941;SDS011;3510;43.200;27.920;2022-12-24T13:54:45;7.33;;;6.27;;
6941;SDS011;3510;43.200;27.920;2022-12-24T13:57:23;7.80;;;6.93;;
6941;SDS011;3510;43.200;27.920;2022-12-24T13:59:56;6.70;;;6.10;;
6941;SDS011;3510;43.200;27.920;2022-12-24T14:02:27;7.20;;;6.50;;
6941;SDS011;3510;43.200;27.920;2022-12-24T14:05:02;8.97;;;7.27;;
6941;SDS011;3510;43.200;27.920;2022-12-24T14:07:34;8.47;;;7.17;;
6941;SDS011;3510;43.200;27.920;2022-12-24T14:10:03;7.40;;;6.70;;
6941;SDS011;3510;43.200;27.920;2022-12-24T14:12:33;7.07;;;6.47;;
6941;SDS011;3510;43.200;27.920;2022-12-24T14:18:22;10.87;;;6.83;;
6941;SDS011;3510;43.200;27.920;2022-12-24T14:20:50;10.60;;;7.07;;
6941;SDS011;3510;43.200;27.920;2022-12-24T14:23:24;8.13;;;7.33;;
6941;SDS011;3510;43.200;27.920;2022-12-24T14:25:59;8.17;;;7.30;;
6941;SDS011;3510;43.200;27.920;2022-12-24T14:28:31;8.37;;;7.67;;
6941;SDS011;3510;43.200;27.920;2022-12-24T14:31:03;9.23;;;7.20;;
6941;SDS011;3510;43.200;27.920;2022-12-24T14:33:39;8.33;;;6.60;;
6941;SDS011;3510;43.200;27.920;2022-12-24T14:36:06;7.27;;;6.57;;
6941;SDS011;3510;43.200;27.920;2022-12-24T14:38:35;10.33;;;6.33;;
6941;SDS011;3510;43.200;27.920;2022-12-24T14:41:06;9.53;;;5.50;;
6941;SDS011;3510;43.200;27.920;2022-12-24T14:43:44;5.13;;;4.73;;
6941;SDS011;3510;43.200;27.920;2022-12-24T14:46:21;6.07;;;4.37;;
6941;SDS011;3510;43.200;27.920;2022-12-24T14:48:56;6.33;;;5.83;;
6941;SDS011;3510;43.200;27.920;2022-12-24T14:51:31;6.70;;;6.10;;
6941;SDS011;3510;43.200;27.920;2022-12-24T14:54:12;9.70;;;7.25;;
6941;SDS011;3510;43.200;27.920;2022-12-24T14:57:17;9.55;;;8.65;;
6941;SDS011;3510;43.200;27.920;2022-12-24T14:59:47;7.53;;;6.90;;
6941;SDS011;3510;43.200;27.920;2022-12-24T15:02:20;6.35;;;5.78;;
6941;SDS011;3510;43.200;27.920;2022-12-24T15:05:01;5.90;;;5.47;;
6941;SDS011;3510;43.200;27.920;2022-12-24T15:07:30;6.38;;;5.85;;
6941;SDS011;3510;43.200;27.920;2022-12-24T15:10:00;6.10;;;5.50;;
6941;SDS011;3510;43.200;27.920;2022-12-24T15:12:28;5.78;;;5.28;;
6941;SDS011;3510;43.200;27.920;2022-12-24T15:14:57;6.18;;;5.57;;
6941;SDS011;3510;43.200;27.920;2022-12-24T15:17:25;7.72;;;6.78;;
6941;SDS011;3510;43.200;27.920;2022-12-24T15:19:53;5.30;;;4.85;;
6941;SDS011;3510;43.200;27.920;2022-12-24T15:22:22;6.45;;;5.95;;
6941;SDS011;3510;43.200;27.920;2022-12-24T15:24:51;9.68;;;6.90;;
6941;SDS011;3510;43.200;27.920;2022-12-24T15:27:20;6.90;;;6.30;;
6941;SDS011;3510;43.200;27.920;2022-12-24T15:29:51;10.35;;;9.35;;
6941;SDS011;3510;43.200;27.920;2022-12-24T15:32:19;8.57;;;7.65;;
6941;SDS011;3510;43.200;27.920;2022-12-24T15:34:47;10.55;;;9.13;;
6941;SDS011;3510;43.200;27.920;2022-12-24T15:37:16;9.40;;;8.43;;
6941;SDS011;3510;43.200;27.920;2022-12-24T15:39:51;7.05;;;6.18;;
6941;SDS011;3510;43.200;27.920;2022-12-24T15:42:21;6.78;;;6.18;;
6941;SDS011;3510;43.200;27.920;2022-12-24T15:44:56;7.03;;;6.33;;
6941;SDS011;3510;43.200;27.920;2022-12-24T15:47:27;8.87;;;7.97;;
6941;SDS011;3510;43.200;27.920;2022-12-24T15:50:02;8.32;;;7.45;;
6941;SDS011;3510;43.200;27.920;2022-12-24T15:52:31;6.78;;;6.20;;
6941;SDS011;3510;43.200;27.920;2022-12-24T15:57:52;8.45;;;7.35;;
6941;SDS011;3510;43.200;27.920;2022-12-24T16:00:20;12.65;;;9.60;;
6941;SDS011;3510;43.200;27.920;2022-12-24T16:02:49;17.30;;;12.57;;
6941;SDS011;3510;43.200;27.920;2022-12-24T16:08:17;8.93;;;7.10;;
6941;SDS011;3510;43.200;27.920;2022-12-24T16:10:52;8.02;;;7.13;;
6941;SDS011;3510;43.200;27.920;2022-12-24T16:13:39;6.80;;;6.15;;
6941;SDS011;3510;43.200;27.920;2022-12-24T16:16:09;7.22;;;6.47;;
6941;SDS011;3510;43.200;27.920;2022-12-24T16:18:39;8.27;;;7.50;;
6941;SDS011;3510;43.200;27.920;2022-12-24T16:21:18;9.10;;;8.20;;
6941;SDS011;3510;43.200;27.920;2022-12-24T16:23:46;8.50;;;7.60;;
6941;SDS011;3510;43.200;27.920;2022-12-24T16:26:16;8.18;;;7.40;;
6941;SDS011;3510;43.200;27.920;2022-12-24T16:28:45;8.30;;;7.60;;
6941;SDS011;3510;43.200;27.920;2022-12-24T16:31:14;9.75;;;8.25;;
6941;SDS011;3510;43.200;27.920;2022-12-24T16:33:43;18.83;;;11.43;;
6941;SDS011;3510;43.200;27.920;2022-12-24T16:36:12;16.08;;;12.63;;
6941;SDS011;3510;43.200;27.920;2022-12-24T16:38:39;9.35;;;8.35;;
6941;SDS011;3510;43.200;27.920;2022-12-24T16:41:20;9.32;;;7.57;;
6941;SDS011;3510;43.200;27.920;2022-12-24T16:43:50;7.88;;;7.18;;
6941;SDS011;3510;43.200;27.920;2022-12-24T16:46:16;7.85;;;6.95;;
6941;SDS011;3510;43.200;27.920;2022-12-24T16:48:45;9.63;;;7.27;;
6941;SDS011;3510;43.200;27.920;2022-12-24T16:51:13;7.00;;;6.30;;
6941;SDS011;3510;43.200;27.920;2022-12-24T16:53:41;6.87;;;5.87;;
6941;SDS011;3510;43.200;27.920;2022-12-24T16:56:09;6.00;;;5.47;;
6941;SDS011;3510;43.200;27.920;2022-12-24T16:58:36;15.80;;;5.30;;
6941;SDS011;3510;43.200;27.920;2022-12-24T17:01:08;8.40;;;6.03;;
6941;SDS011;3510;43.200;27.920;2022-12-24T17:03:35;7.60;;;6.47;;
6941;SDS011;3510;43.200;27.920;2022-12-24T17:06:03;7.20;;;6.50;;
6941;SDS011;3510;43.200;27.920;2022-12-24T17:08:31;7.65;;;7.00;;
6941;SDS011;3510;43.200;27.920;2022-12-24T17:10:59;7.40;;;6.70;;
6941;SDS011;3510;43.200;27.920;2022-12-24T17:13:26;8.43;;;7.00;;
6941;SDS011;3510;43.200;27.920;2022-12-24T17:15:55;10.17;;;6.00;;
6941;SDS011;3510;43.200;27.920;2022-12-24T17:20:57;7.22;;;6.53;;
6941;SDS011;3510;43.200;27.920;2022-12-24T17:23:25;5.30;;;4.90;;
6941;SDS011;3510;43.200;27.920;2022-12-24T17:25:52;5.97;;;5.37;;
6941;SDS011;3510;43.200;27.920;2022-12-24T17:28:19;6.37;;;4.67;;
6941;SDS011;3510;43.200;27.920;2022-12-24T17:30:46;5.27;;;4.77;;
6941;SDS011;3510;43.200;27.920;2022-12-24T17:33:15;6.07;;;5.47;;
6941;SDS011;3510;43.200;27.920;2022-12-24T17:35:44;7.03;;;5.37;;
6941;SDS011;3510;43.200;27.920;2022-12-24T17:38:13;6.27;;;5.07;;
6941;SDS011;3510;43.200;27.920;2022-12-24T17:40:40;7.70;;;6.63;;
6941;SDS011;3510;43.200;27.920;2022-12-24T17:43:07;10.97;;;9.67;;
6941;SDS011;3510;43.200;27.920;2022-12-24T17:45:38;7.00;;;6.30;;
6941;SDS011;3510;43.200;27.920;2022-12-24T17:48:06;7.90;;;6.87;;
6941;SDS011;3510;43.200;27.920;2022-12-24T17:50:36;9.63;;;8.53;;
6941;SDS011;3510;43.200;27.920;2022-12-24T17:53:06;13.30;;;10.80;;
6941;SDS011;3510;43.200;27.920;2022-12-24T17:55:33;14.50;;;10.40;;
6941;SDS011;3510;43.200;27.920;2022-12-24T17:58:00;8.83;;;7.43;;
6941;SDS011;3510;43.200;27.920;2022-12-24T18:00:31;9.37;;;6.73;;
6941;SDS011;3510;43.200;27.920;2022-12-24T18:02:59;12.03;;;8.43;;
6941;SDS011;3510;43.200;27.920;2022-12-24T18:05:26;11.03;;;6.50;;
6941;SDS011;3510;43.200;27.920;2022-12-24T18:07:53;6.33;;;5.73;;
6941;SDS011;3510;43.200;27.920;2022-12-24T18:10:21;8.67;;;4.97;;
6941;SDS011;3510;43.200;27.920;2022-12-24T18:12:48;6.10;;;5.50;;
6941;SDS011;3510;43.200;27.920;2022-12-24T18:15:17;29.27;;;16.37;;
6941;SDS011;3510;43.200;27.920;2022-12-24T18:17:48;12.90;;;8.77;;
6941;SDS011;3510;43.200;27.920;2022-12-24T18:20:16;12.33;;;7.83;;
6941;SDS011;3510;43.200;27.920;2022-12-24T18:22:44;15.50;;;8.57;;
6941;SDS011;3510;43.200;27.920;2022-12-24T18:25:11;14.60;;;9.53;;
6941;SDS011;3510;43.200;27.920;2022-12-24T18:27:41;11.97;;;8.30;;
6941;SDS011;3510;43.200;27.920;2022-12-24T18:30:09;12.10;;;9.30;;
6941;SDS011;3510;43.200;27.920;2022-12-24T18:32:38;12.87;;;8.73;;
6941;SDS011;3510;43.200;27.920;2022-12-24T18:35:08;14.60;;;10.20;;
6941;SDS011;3510;43.200;27.920;2022-12-24T18:37:36;14.20;;;9.53;;
6941;SDS011;3510;43.200;27.920;2022-12-24T18:40:03;15.50;;;10.03;;
6941;SDS011;3510;43.200;27.920;2022-12-24T18:42:31;13.00;;;10.03;;
6941;SDS011;3510;43.200;27.920;2022-12-24T18:45:01;14.97;;;11.40;;
6941;SDS011;3510;43.200;27.920;2022-12-24T18:47:29;10.80;;;8.57;;
6941;SDS011;3510;43.200;27.920;2022-12-24T18:49:56;9.50;;;8.00;;
6941;SDS011;3510;43.200;27.920;2022-12-24T18:52:23;9.87;;;8.87;;
6941;SDS011;3510;43.200;27.920;2022-12-24T18:54:51;8.03;;;7.07;;
6941;SDS011;3510;43.200;27.920;2022-12-24T18:57:22;8.40;;;6.63;;
6941;SDS011;3510;43.200;27.920;2022-12-24T18:59:57;6.30;;;5.70;;
6941;SDS011;3510;43.200;27.920;2022-12-24T19:02:26;8.23;;;7.40;;
6941;SDS011;3510;43.200;27.920;2022-12-24T19:04:53;8.00;;;7.20;;
6941;SDS011;3510;43.200;27.920;2022-12-24T19:07:21;11.03;;;8.67;;
6941;SDS011;3510;43.200;27.920;2022-12-24T19:09:48;12.27;;;9.50;;
6941;SDS011;3510;43.200;27.920;2022-12-24T19:12:17;11.73;;;9.43;;
6941;SDS011;3510;43.200;27.920;2022-12-24T19:14:44;9.40;;;8.20;;
6941;SDS011;3510;43.200;27.920;2022-12-24T19:17:12;14.57;;;8.57;;
6941;SDS011;3510;43.200;27.920;2022-12-24T19:19:42;11.00;;;8.93;;
6941;SDS011;3510;43.200;27.920;2022-12-24T19:22:09;10.83;;;9.70;;
6941;SDS011;3510;43.200;27.920;2022-12-24T19:24:36;11.97;;;9.60;;
6941;SDS011;3510;43.200;27.920;2022-12-24T19:27:03;9.00;;;8.10;;
6941;SDS011;3510;43.200;27.920;2022-12-24T19:29:33;14.80;;;9.43;;
6941;SDS011;3510;43.200;27.920;2022-12-24T19:32:01;13.00;;;10.57;;
6941;SDS011;3510;43.200;27.920;2022-12-24T19:34:29;13.10;;;10.30;;
6941;SDS011;3510;43.200;27.920;2022-12-24T19:36:59;12.43;;;8.83;;
6941;SDS011;3510;43.200;27.920;2022-12-24T19:42:03;12.40;;;9.50;;
6941;SDS011;3510;43.200;27.920;2022-12-24T19:44:32;12.80;;;9.80;;
6941;SDS011;3510;43.200;27.920;2022-12-24T19:47:04;8.30;;;7.27;;
6941;SDS011;3510;43.200;27.920;2022-12-24T19:49:31;7.43;;;6.73;;
6941;SDS011;3510;43.200;27.920;2022-12-24T19:52:00;11.93;;;7.53;;
6941;SDS011;3510;43.200;27.920;2022-12-24T19:54:27;8.83;;;7.17;;
6941;SDS011;3510;43.200;27.920;2022-12-24T19:56:55;11.73;;;8.37;;
6941;SDS011;3510;43.200;27.920;2022-12-24T19:59:23;9.07;;;8.20;;
6941;SDS011;3510;43.200;27.920;2022-12-24T20:01:51;20.20;;;7.27;;
6941;SDS011;3510;43.200;27.920;2022-12-24T20:04:20;9.60;;;8.27;;
6941;SDS011;3510;43.200;27.920;2022-12-24T20:06:48;10.07;;;7.93;;
6941;SDS011;3510;43.200;27.920;2022-12-24T20:09:17;10.00;;;8.03;;
6941;SDS011;3510;43.200;27.920;2022-12-24T20:11:44;9.67;;;5.77;;
6941;SDS011;3510;43.200;27.920;2022-12-24T20:14:16;11.47;;;7.90;;
6941;SDS011;3510;43.200;27.920;2022-12-24T20:16:45;12.90;;;8.77;;
6941;SDS011;3510;43.200;27.920;2022-12-24T20:19:14;13.57;;;6.93;;
6941;SDS011;3510;43.200;27.920;2022-12-24T20:21:43;24.10;;;7.63;;
6941;SDS011;3510;43.200;27.920;2022-12-24T20:24:10;9.37;;;7.40;;
6941;SDS011;3510;43.200;27.920;2022-12-24T20:26:41;8.40;;;7.50;;
6941;SDS011;3510;43.200;27.920;2022-12-24T20:29:08;10.77;;;6.33;;
6941;SDS011;3510;43.200;27.920;2022-12-24T20:31:38;10.27;;;8.07;;
6941;SDS011;3510;43.200;27.920;2022-12-24T20:34:09;11.17;;;7.80;;
6941;SDS011;3510;43.200;27.920;2022-12-24T20:36:37;11.37;;;9.10;;
6941;SDS011;3510;43.200;27.920;2022-12-24T20:39:05;10.23;;;8.03;;
6941;SDS011;3510;43.200;27.920;2022-12-24T20:41:34;14.63;;;8.27;;
6941;SDS011;3510;43.200;27.920;2022-12-24T20:44:04;10.97;;;8.90;;
6941;SDS011;3510;43.200;27.920;2022-12-24T20:46:33;10.80;;;9.50;;
6941;SDS011;3510;43.200;27.920;2022-12-24T20:49:00;7.20;;;6.47;;
6941;SDS011;3510;43.200;27.920;2022-12-24T20:51:29;7.53;;;6.70;;
6941;SDS011;3510;43.200;27.920;2022-12-24T20:53:58;7.40;;;6.50;;
6941;SDS011;3510;43.200;27.920;2022-12-24T20:56:27;7.00;;;6.40;;
6941;SDS011;3510;43.200;27.920;2022-12-24T20:59:04;6.33;;;5.10;;
6941;SDS011;3510;43.200;27.920;2022-12-24T21:01:32;5.70;;;5.00;;
6941;SDS011;3510;43.200;27.920;2022-12-24T21:03:59;6.63;;;6.03;;
6941;SDS011;3510;43.200;27.920;2022-12-24T21:06:29;6.00;;;5.50;;
6941;SDS011;3510;43.200;27.920;2022-12-24T21:09:07;5.70;;;4.70;;
6941;SDS011;3510;43.200;27.920;2022-12-24T21:11:39;4.43;;;4.13;;
6941;SDS011;3510;43.200;27.920;2022-12-24T21:14:27;6.43;;;5.83;;
6941;SDS011;3510;43.200;27.920;2022-12-24T21:16:56;4.73;;;4.30;;
6941;SDS011;3510;43.200;27.920;2022-12-24T21:19:24;4.50;;;4.07;;
6941;SDS011;3510;43.200;27.920;2022-12-24T21:21:51;5.73;;;5.27;;
6941;SDS011;3510;43.200;27.920;2022-12-24T21:24:20;6.00;;;5.43;;
6941;SDS011;3510;43.200;27.920;2022-12-24T21:26:50;4.83;;;4.27;;
6941;SDS011;3510;43.200;27.920;2022-12-24T21:29:23;5.20;;;4.77;;
6941;SDS011;3510;43.200;27.920;2022-12-24T21:31:56;5.63;;;4.90;;
6941;SDS011;3510;43.200;27.920;2022-12-24T21:34:23;8.23;;;5.10;;
6941;SDS011;3510;43.200;27.920;2022-12-24T21:36:50;6.60;;;5.83;;
6941;SDS011;3510;43.200;27.920;2022-12-24T21:39:19;5.07;;;4.60;;
6941;SDS011;3510;43.200;27.920;2022-12-24T21:41:46;4.40;;;3.90;;
6941;SDS011;3510;43.200;27.920;2022-12-24T21:44:13;5.60;;;5.00;;
6941;SDS011;3510;43.200;27.920;2022-12-24T21:46:40;8.87;;;5.90;;
6941;SDS011;3510;43.200;27.920;2022-12-24T21:49:10;7.17;;;6.13;;
6941;SDS011;3510;43.200;27.920;2022-12-24T21:51:54;5.60;;;5.20;;
6941;SDS011;3510;43.200;27.920;2022-12-24T21:54:22;5.13;;;4.67;;
6941;SDS011;3510;43.200;27.920;2022-12-24T21:56:51;5.20;;;4.70;;
6941;SDS011;3510;43.200;27.920;2022-12-24T21:59:38;6.93;;;6.17;;
6941;SDS011;3510;43.200;27.920;2022-12-24T22:02:06;6.10;;;5.10;;
6941;SDS011;3510;43.200;27.920;2022-12-24T22:04:39;7.87;;;5.90;;
6941;SDS011;3510;43.200;27.920;2022-12-24T22:07:10;7.70;;;6.17;;
6941;SDS011;3510;43.200;27.920;2022-12-24T22:10:05;6.33;;;4.97;;
6941;SDS011;3510;43.200;27.920;2022-12-24T22:12:51;7.47;;;6.87;;
6941;SDS011;3510;43.200;27.920;2022-12-24T22:15:19;5.73;;;5.27;;
6941;SDS011;3510;43.200;27.920;2022-12-24T22:17:48;5.07;;;4.67;;
6941;SDS011;3510;43.200;27.920;2022-12-24T22:20:18;6.23;;;4.30;;
6941;SDS011;3510;43.200;27.920;2022-12-24T22:22:46;5.27;;;4.77;;
6941;SDS011;3510;43.200;27.920;2022-12-24T22:25:14;5.33;;;4.93;;
6941;SDS011;3510;43.200;27.920;2022-12-24T22:27:44;5.87;;;5.27;;
6941;SDS011;3510;43.200;27.920;2022-12-24T22:30:12;5.50;;;4.73;;
6941;SDS011;3510;43.200;27.920;2022-12-24T22:32:40;5.33;;;4.93;;